createdAt,value
2022-08-11T00:01:33.727Z,0.00
2022-08-11T00:02:33.851Z,0.00
2022-08-11T00:04:27.824Z,0.00
2022-08-11T00:05:27.807Z,0.00
2022-08-11T00:07:22.121Z,0.00
2022-08-11T00:08:22.105Z,0.00
2022-08-11T00:10:16.311Z,0.00
2022-08-11T00:11:16.308Z,0.00
2022-08-11T00:13:10.440Z,0.00
2022-08-11T00:14:10.426Z,0.00
2022-08-11T00:16:04.606Z,0.00
2022-08-11T00:17:04.598Z,0.00
2022-08-11T00:18:59.533Z,0.00
2022-08-11T00:20:13.086Z,0.00
2022-08-11T00:22:05.101Z,0.00
2022-08-11T00:22:52.798Z,0.00
2022-08-11T00:24:53.903Z,0.00
2022-08-11T00:25:46.907Z,0.00
2022-08-11T00:27:41.015Z,0.00
2022-08-11T00:28:41.005Z,0.00
2022-08-11T00:30:34.728Z,0.00
2022-08-11T00:31:34.722Z,0.00
2022-08-11T00:33:41.138Z,0.00
2022-08-11T00:34:28.803Z,0.00
2022-08-11T00:36:25.618Z,0.00
2022-08-11T00:37:22.914Z,0.00
2022-08-11T00:39:16.762Z,0.00
2022-08-11T00:40:16.709Z,0.00
2022-08-11T00:42:10.844Z,0.00
2022-08-11T00:43:10.901Z,0.00
2022-08-11T00:45:04.980Z,0.00
2022-08-11T00:46:04.966Z,0.00
2022-08-11T00:48:00.254Z,0.00
2022-08-11T00:48:59.064Z,0.00
2022-08-11T00:50:53.208Z,0.00
2022-08-11T00:52:04.152Z,0.00
2022-08-11T00:53:47.294Z,0.00
2022-08-11T00:54:47.274Z,0.00
2022-08-11T00:56:41.370Z,0.00
2022-08-11T00:57:41.363Z,0.00
2022-08-11T00:59:36.045Z,0.00
2022-08-11T01:00:35.503Z,0.00
2022-08-11T01:02:30.809Z,0.00
2022-08-11T01:03:29.762Z,0.00
2022-08-11T01:05:23.993Z,0.00
2022-08-11T01:06:23.970Z,0.00
2022-08-11T01:08:19.224Z,0.00
2022-08-11T01:09:22.690Z,0.00
2022-08-11T01:11:13.304Z,0.00
2022-08-11T01:12:13.302Z,0.00
2022-08-11T01:14:07.477Z,0.00
2022-08-11T01:15:07.461Z,0.00
2022-08-11T01:17:01.659Z,0.00
2022-08-11T01:18:01.654Z,0.00
2022-08-11T01:20:45.102Z,0.00
2022-08-11T01:20:55.742Z,0.00
2022-08-11T01:22:49.903Z,0.00
2022-08-11T01:23:49.895Z,0.00
2022-08-11T01:25:57.245Z,0.00
2022-08-11T01:26:44.016Z,0.00
2022-08-11T01:28:38.328Z,0.00
2022-08-11T01:29:38.314Z,0.00
2022-08-11T01:31:32.488Z,0.00
2022-08-11T01:32:32.524Z,0.00
2022-08-11T01:34:26.720Z,0.00
2022-08-11T01:35:26.696Z,0.00
2022-08-11T01:37:21.807Z,0.00
2022-08-11T01:38:21.803Z,0.00
2022-08-11T01:40:15.942Z,0.00
2022-08-11T01:41:15.923Z,0.00
2022-08-11T01:43:10.033Z,0.00
2022-08-11T01:44:12.642Z,0.00
2022-08-11T01:46:04.276Z,0.00
2022-08-11T01:47:04.258Z,0.00
2022-08-11T01:48:58.376Z,0.00
2022-08-11T01:50:07.557Z,0.00
2022-08-11T01:51:52.550Z,0.00
2022-08-11T01:52:52.543Z,0.00
2022-08-11T01:54:46.666Z,0.00
2022-08-11T01:55:46.649Z,0.00
2022-08-11T01:57:40.732Z,0.00
2022-08-11T01:58:44.133Z,0.00
2022-08-11T02:00:35.090Z,0.00
2022-08-11T02:01:35.015Z,0.00
2022-08-11T02:03:29.096Z,0.00
2022-08-11T02:04:29.079Z,0.00
2022-08-11T02:06:23.175Z,0.00
2022-08-11T02:07:23.169Z,0.00
2022-08-11T02:09:17.317Z,0.00
2022-08-11T02:10:17.298Z,0.00
2022-08-11T02:12:11.455Z,0.00
2022-08-11T02:13:11.446Z,0.00
2022-08-11T02:15:05.795Z,0.00
2022-08-11T02:16:05.531Z,0.00
2022-08-11T02:17:59.622Z,0.00
2022-08-11T02:18:59.611Z,0.00
2022-08-11T02:20:53.759Z,0.00
2022-08-11T02:21:53.745Z,0.00
2022-08-11T02:24:06.786Z,0.00
2022-08-11T02:24:47.956Z,0.00
2022-08-11T02:26:43.163Z,0.00
2022-08-11T02:27:43.152Z,0.00
2022-08-11T02:29:37.458Z,0.00
2022-08-11T02:30:37.442Z,0.00
2022-08-11T02:32:31.710Z,0.00
2022-08-11T02:33:31.695Z,0.00
2022-08-11T02:35:26.482Z,0.00
2022-08-11T02:36:26.467Z,0.00
2022-08-11T02:38:20.617Z,0.00
2022-08-11T02:39:20.666Z,0.00
2022-08-11T02:41:14.823Z,0.00
2022-08-11T02:42:32.706Z,0.00
2022-08-11T02:44:08.904Z,0.00
2022-08-11T02:45:08.889Z,0.00
2022-08-11T02:47:03.106Z,0.00
2022-08-11T02:48:03.099Z,0.00
2022-08-11T02:50:02.771Z,0.00
2022-08-11T02:50:57.191Z,0.00
2022-08-11T02:52:52.438Z,0.00
2022-08-11T02:53:56.339Z,0.00
2022-08-11T02:55:57.115Z,0.00
2022-08-11T02:56:46.542Z,0.00
2022-08-11T02:58:40.749Z,0.00
2022-08-11T02:59:40.741Z,0.00
2022-08-11T03:01:34.891Z,0.00
2022-08-11T03:02:34.846Z,0.00
2022-08-11T03:04:37.529Z,0.00
2022-08-11T03:05:28.935Z,0.00
2022-08-11T03:07:29.130Z,0.00
2022-08-11T03:08:23.128Z,0.00
2022-08-11T03:10:17.240Z,0.00
2022-08-11T03:11:17.223Z,0.00
2022-08-11T03:13:11.308Z,0.00
2022-08-11T03:14:11.302Z,0.00
2022-08-11T03:16:05.467Z,0.00
2022-08-11T03:17:05.449Z,0.00
2022-08-11T03:18:59.597Z,0.00
2022-08-11T03:19:59.591Z,0.00
2022-08-11T03:22:03.153Z,0.00
2022-08-11T03:22:53.774Z,0.00
2022-08-11T03:24:47.889Z,0.00
2022-08-11T03:25:47.864Z,0.00
2022-08-11T03:27:42.068Z,0.00
2022-08-11T03:28:42.059Z,0.00
2022-08-11T03:30:36.176Z,0.00
2022-08-11T03:31:36.155Z,0.00
2022-08-11T03:33:31.394Z,0.00
2022-08-11T03:34:31.388Z,0.00
2022-08-11T03:36:25.476Z,0.00
2022-08-11T03:37:25.461Z,0.00
2022-08-11T03:39:19.684Z,0.00
2022-08-11T03:40:19.537Z,0.00
2022-08-11T03:42:13.652Z,0.00
2022-08-11T03:43:13.631Z,4.00
2022-08-11T03:45:07.769Z,0.00
2022-08-11T03:46:07.752Z,4.00
2022-08-11T03:48:01.905Z,4.00
2022-08-11T03:49:01.902Z,4.00
2022-08-11T03:50:56.046Z,4.00
2022-08-11T03:51:56.024Z,4.00
2022-08-11T03:53:50.166Z,8.00
2022-08-11T03:54:50.148Z,8.00
2022-08-11T03:56:44.353Z,12.00
2022-08-11T03:57:44.335Z,12.00
2022-08-11T03:59:38.519Z,16.00
2022-08-11T04:00:38.514Z,20.00
2022-08-11T04:02:32.659Z,24.00
2022-08-11T04:03:32.591Z,28.00
2022-08-11T04:05:26.720Z,32.00
2022-08-11T04:06:26.715Z,36.00
2022-08-11T04:08:20.852Z,44.00
2022-08-11T04:09:20.830Z,48.00
2022-08-11T04:11:14.932Z,52.00
2022-08-11T04:12:35.284Z,60.00
2022-08-11T04:14:09.046Z,68.00
2022-08-11T04:15:09.044Z,76.00
2022-08-11T04:17:03.215Z,88.00
2022-08-11T04:18:03.187Z,96.00
2022-08-11T04:19:58.313Z,104.00
2022-08-11T04:20:58.292Z,112.00
2022-08-11T04:22:52.574Z,132.00
2022-08-11T04:24:13.250Z,140.00
2022-08-11T04:25:57.769Z,160.00
2022-08-11T04:26:46.657Z,168.00
2022-08-11T04:28:43.119Z,188.00
2022-08-11T04:30:03.824Z,196.00
2022-08-11T04:31:51.960Z,216.00
2022-08-11T04:32:35.091Z,228.00
2022-08-11T04:34:29.192Z,248.00
2022-08-11T04:35:29.186Z,248.00
2022-08-11T04:37:23.542Z,276.00
2022-08-11T04:38:23.527Z,284.00
2022-08-11T04:40:17.616Z,308.00
2022-08-11T04:41:17.609Z,320.00
2022-08-11T04:43:11.700Z,344.00
2022-08-11T04:44:11.689Z,352.00
2022-08-11T04:46:06.794Z,376.00
2022-08-11T04:47:06.780Z,388.00
2022-08-11T04:49:00.892Z,412.00
2022-08-11T04:50:00.887Z,420.00
2022-08-11T04:51:55.094Z,444.00
2022-08-11T04:52:55.070Z,456.00
2022-08-11T04:54:49.169Z,480.00
2022-08-11T04:55:49.163Z,488.00
2022-08-11T04:57:43.279Z,508.00
2022-08-11T04:58:43.259Z,524.00
2022-08-11T05:00:37.336Z,544.00
2022-08-11T05:01:37.836Z,556.00
2022-08-11T05:03:31.442Z,576.00
2022-08-11T05:04:31.428Z,588.00
2022-08-11T05:06:25.186Z,608.00
2022-08-11T05:07:25.171Z,620.00
2022-08-11T05:09:19.276Z,640.00
2022-08-11T05:10:19.267Z,652.00
2022-08-11T05:12:13.352Z,676.00
2022-08-11T05:13:13.340Z,684.00
2022-08-11T05:15:08.438Z,708.00
2022-08-11T05:16:08.433Z,720.00
2022-08-11T05:18:03.547Z,736.00
2022-08-11T05:19:03.532Z,748.00
2022-08-11T05:20:58.801Z,768.00
2022-08-11T05:21:57.786Z,780.00
2022-08-11T05:23:51.881Z,800.00
2022-08-11T05:24:51.864Z,808.00
2022-08-11T05:26:48.875Z,828.00
2022-08-11T05:27:45.962Z,836.00
2022-08-11T05:29:40.160Z,856.00
2022-08-11T05:30:40.154Z,864.00
2022-08-11T05:32:35.393Z,876.00
2022-08-11T05:33:35.360Z,884.00
2022-08-11T05:36:01.969Z,904.00
2022-08-11T05:36:29.646Z,912.00
2022-08-11T05:38:23.782Z,928.00
2022-08-11T05:39:36.122Z,932.00
2022-08-11T05:41:17.880Z,948.00
2022-08-11T05:42:29.517Z,956.00
2022-08-11T05:44:20.394Z,976.00
2022-08-11T05:45:15.663Z,984.00
2022-08-11T05:47:06.235Z,1004.00
2022-08-11T05:48:06.217Z,1012.00
2022-08-11T05:50:00.814Z,1028.00
2022-08-11T05:51:00.533Z,1036.00
2022-08-11T05:52:55.505Z,1052.00
2022-08-11T05:53:54.629Z,1060.00
2022-08-11T05:55:58.368Z,1080.00
2022-08-11T05:56:48.734Z,1088.00
2022-08-11T05:58:43.163Z,1108.00
2022-08-11T05:59:42.470Z,1116.00
2022-08-11T06:01:36.601Z,1132.00
2022-08-11T06:02:36.685Z,1144.00
2022-08-11T06:04:30.640Z,1168.00
2022-08-11T06:05:30.627Z,1176.00
2022-08-11T06:07:25.032Z,1204.00
2022-08-11T06:08:24.920Z,1216.00
2022-08-11T06:10:18.993Z,1248.00
2022-08-11T06:11:18.987Z,1264.00
2022-08-11T06:13:13.093Z,1296.00
2022-08-11T06:14:13.085Z,1312.00
2022-08-11T06:16:07.400Z,1348.00
2022-08-11T06:17:07.378Z,1368.00
2022-08-11T06:19:01.555Z,1412.00
2022-08-11T06:20:04.222Z,1440.00
2022-08-11T06:21:55.616Z,1512.00
2022-08-11T06:22:55.608Z,1572.00
2022-08-11T06:24:49.742Z,1692.00
2022-08-11T06:25:49.728Z,1744.00
2022-08-11T06:27:43.818Z,1876.00
2022-08-11T06:28:43.804Z,1968.00
2022-08-11T06:30:38.540Z,2124.00
2022-08-11T06:31:38.528Z,2148.00
2022-08-11T06:33:32.624Z,2316.00
2022-08-11T06:34:32.608Z,5216.00
2022-08-11T06:36:26.710Z,13600.00
2022-08-11T06:37:26.705Z,13792.00
2022-08-11T06:39:20.870Z,12544.00
2022-08-11T06:40:20.778Z,12180.00
2022-08-11T06:42:14.930Z,11852.00
2022-08-11T06:43:14.907Z,11696.00
2022-08-11T06:45:10.054Z,11348.00
2022-08-11T06:46:10.059Z,11244.00
2022-08-11T06:48:04.169Z,10664.00
2022-08-11T06:49:04.153Z,10060.00
2022-08-11T06:50:58.215Z,8696.00
2022-08-11T06:52:00.619Z,7900.00
2022-08-11T06:54:03.465Z,5716.00
2022-08-11T06:54:52.305Z,4556.00
2022-08-11T06:56:46.444Z,3512.00
2022-08-11T06:57:46.439Z,3340.00
2022-08-11T06:59:40.530Z,3296.00
2022-08-11T07:00:40.514Z,3332.00
2022-08-11T07:02:34.578Z,3404.00
2022-08-11T07:03:34.344Z,3440.00
2022-08-11T07:05:28.453Z,3508.00
2022-08-11T07:06:28.452Z,3544.00
2022-08-11T07:08:34.197Z,3608.00
2022-08-11T07:09:22.714Z,3644.00
2022-08-11T07:11:16.990Z,3716.00
2022-08-11T07:12:16.983Z,3824.00
2022-08-11T07:14:11.242Z,4448.00
2022-08-11T07:15:11.230Z,4920.00
2022-08-11T07:17:05.390Z,5924.00
2022-08-11T07:18:05.381Z,6420.00
2022-08-11T07:19:59.509Z,6972.00
2022-08-11T07:21:02.185Z,6728.00
2022-08-11T07:22:53.663Z,5732.00
2022-08-11T07:23:53.646Z,5416.00
2022-08-11T07:25:48.769Z,5072.00
2022-08-11T07:26:48.760Z,4960.00
2022-08-11T07:28:42.863Z,4796.00
2022-08-11T07:29:42.852Z,4728.00
2022-08-11T07:31:36.931Z,4636.00
2022-08-11T07:32:37.076Z,4592.00
2022-08-11T07:34:31.061Z,4536.00
2022-08-11T07:35:31.051Z,4512.00
2022-08-11T07:37:26.217Z,4472.00
2022-08-11T07:38:26.206Z,4460.00
2022-08-11T07:40:20.300Z,4432.00
2022-08-11T07:41:20.298Z,4420.00
2022-08-11T07:43:14.235Z,4508.00
2022-08-11T07:44:14.225Z,4688.00
2022-08-11T07:46:08.312Z,5028.00
2022-08-11T07:47:08.316Z,5060.00
2022-08-11T07:49:02.473Z,5120.00
2022-08-11T07:50:02.474Z,5160.00
2022-08-11T07:51:57.581Z,5228.00
2022-08-11T07:52:57.580Z,5264.00
2022-08-11T07:54:51.687Z,5348.00
2022-08-11T07:55:53.604Z,5372.00
2022-08-11T07:58:13.920Z,5452.00
2022-08-11T07:58:52.438Z,5496.00
2022-08-11T08:00:40.974Z,5580.00
2022-08-11T08:01:41.049Z,5616.00
2022-08-11T08:03:35.199Z,5704.00
2022-08-11T08:04:35.191Z,5744.00
2022-08-11T08:06:36.079Z,5812.00
2022-08-11T08:07:29.318Z,5856.00
2022-08-11T08:09:23.483Z,5916.00
2022-08-11T08:10:23.473Z,5948.00
2022-08-11T08:12:17.252Z,6008.00
2022-08-11T08:13:17.251Z,6028.00
2022-08-11T08:15:11.399Z,6048.00
2022-08-11T08:16:11.387Z,6040.00
2022-08-11T08:18:09.397Z,6012.00
2022-08-11T08:19:05.529Z,6012.00
2022-08-11T08:21:00.660Z,6024.00
2022-08-11T08:22:01.105Z,6036.00
2022-08-11T08:23:56.577Z,6080.00
2022-08-11T08:24:54.778Z,6108.00
2022-08-11T08:26:51.800Z,6176.00
2022-08-11T08:27:48.928Z,6220.00
2022-08-11T08:29:43.094Z,6300.00
2022-08-11T08:30:43.084Z,6360.00
2022-08-11T08:32:37.233Z,6456.00
2022-08-11T08:33:37.012Z,6516.00
2022-08-11T08:35:33.031Z,6652.00
2022-08-11T08:36:31.104Z,6720.00
2022-08-11T08:38:25.258Z,6852.00
2022-08-11T08:39:25.304Z,6940.00
2022-08-11T08:41:19.409Z,7060.00
2022-08-11T08:42:19.405Z,7160.00
2022-08-11T08:45:13.572Z,7384.00
2022-08-11T08:47:08.674Z,7580.00
2022-08-11T08:48:08.677Z,7636.00
2022-08-11T08:50:02.787Z,7800.00
2022-08-11T08:51:02.783Z,7916.00
2022-08-11T08:52:56.933Z,8108.00
2022-08-11T08:53:58.615Z,8288.00
2022-08-11T08:55:51.068Z,8468.00
2022-08-11T08:56:51.059Z,8608.00
2022-08-11T08:58:45.199Z,8856.00
2022-08-11T08:59:48.491Z,8960.00
2022-08-11T09:01:39.375Z,9232.00
2022-08-11T09:02:39.327Z,9356.00
2022-08-11T09:04:34.452Z,9660.00
2022-08-11T09:05:34.449Z,9800.00
2022-08-11T09:07:32.620Z,10188.00
2022-08-11T09:08:28.580Z,10364.00
2022-08-11T09:10:22.655Z,10708.00
2022-08-11T09:11:22.648Z,10952.00
2022-08-11T09:13:16.736Z,11404.00
2022-08-11T09:14:16.742Z,11608.00
2022-08-11T09:16:11.887Z,12296.00
2022-08-11T09:17:11.877Z,12648.00
2022-08-11T09:19:06.072Z,13324.00
2022-08-11T09:20:06.061Z,13780.00
2022-08-11T09:22:00.182Z,15232.00
2022-08-11T09:24:06.453Z,17312.00
2022-08-11T09:24:54.335Z,24608.00
2022-08-11T09:25:54.331Z,26720.00
2022-08-11T09:27:50.353Z,28960.00
2022-08-11T09:28:48.096Z,31456.00
2022-08-11T09:30:41.864Z,29920.00
2022-08-11T09:31:41.854Z,31264.00
2022-08-11T09:33:36.075Z,35072.00
2022-08-11T09:34:36.083Z,34848.00
2022-08-11T09:36:30.195Z,34400.00
2022-08-11T09:37:55.385Z,36288.00
2022-08-11T09:39:25.581Z,37280.00
2022-08-11T09:40:27.183Z,36640.00
2022-08-11T09:42:23.653Z,40800.00
2022-08-11T09:43:19.620Z,40000.00
2022-08-11T09:45:13.434Z,41888.00
2022-08-11T09:46:13.435Z,41056.00
2022-08-11T09:48:08.538Z,38592.00
2022-08-11T09:49:08.542Z,38496.00
2022-08-11T09:51:02.649Z,43936.00
2022-08-11T09:52:05.392Z,43488.00
2022-08-11T09:54:03.748Z,42848.00
2022-08-11T09:54:56.845Z,43328.00
2022-08-11T09:56:51.023Z,41664.00
2022-08-11T09:57:51.019Z,40832.00
2022-08-11T09:59:45.163Z,39648.00
2022-08-11T10:00:45.163Z,39744.00
2022-08-11T10:02:39.350Z,43872.00
2022-08-11T10:03:40.441Z,44896.00
2022-08-11T10:05:33.682Z,43168.00
2022-08-11T10:06:34.572Z,42816.00
2022-08-11T10:08:28.837Z,47808.00
2022-08-11T10:09:28.836Z,47904.00
2022-08-11T10:11:23.002Z,45728.00
2022-08-11T10:12:22.996Z,45248.00
2022-08-11T10:14:32.825Z,42624.00
2022-08-11T10:15:18.171Z,42400.00
2022-08-11T10:17:13.583Z,44416.00
2022-08-11T10:18:13.577Z,43200.00
2022-08-11T10:20:07.761Z,42048.00
2022-08-11T10:21:07.754Z,45280.00
2022-08-11T10:23:02.881Z,41664.00
2022-08-11T10:24:06.048Z,41440.00
2022-08-11T10:25:57.351Z,43040.00
2022-08-11T10:26:57.341Z,44896.00
2022-08-11T10:29:12.003Z,43840.00
2022-08-11T10:29:52.125Z,47648.00
2022-08-11T10:31:57.913Z,49152.00
2022-08-11T10:32:57.778Z,51904.00
2022-08-11T10:34:39.778Z,50016.00
2022-08-11T10:35:39.802Z,51392.00
2022-08-11T10:38:08.817Z,52032.00
2022-08-11T10:38:33.952Z,54464.00
2022-08-11T10:40:28.516Z,53888.00
2022-08-11T10:41:28.316Z,53440.00
2022-08-11T10:44:03.059Z,47360.00
2022-08-11T10:44:23.500Z,50848.00
2022-08-11T10:46:18.622Z,53664.00
2022-08-11T10:47:18.614Z,53952.00
2022-08-11T10:49:12.761Z,49536.00
2022-08-11T10:50:12.784Z,51552.00
2022-08-11T10:52:07.176Z,52288.00
2022-08-11T10:53:07.129Z,50368.00
2022-08-11T10:55:01.510Z,50816.00
2022-08-11T10:56:01.562Z,49216.00
2022-08-11T10:58:05.116Z,51648.00
2022-08-11T10:58:57.532Z,49184.00
2022-08-11T11:00:49.780Z,49728.00
2022-08-11T11:01:49.752Z,51200.00
2022-08-11T11:03:44.075Z,55072.00
2022-08-11T11:04:45.574Z,55520.00
2022-08-11T11:06:38.271Z,54464.00
2022-08-11T11:07:41.499Z,53536.00
2022-08-11T11:09:32.665Z,53216.00
2022-08-11T11:10:32.478Z,52640.00
2022-08-11T11:12:27.590Z,57472.00
2022-08-11T11:13:27.592Z,54880.00
2022-08-11T11:15:21.918Z,54592.00
2022-08-11T11:16:21.919Z,51968.00
2022-08-11T11:18:16.044Z,52064.00
2022-08-11T11:19:16.053Z,52672.00
2022-08-11T11:21:10.192Z,51200.00
2022-08-11T11:22:10.190Z,50880.00
2022-08-11T11:24:04.314Z,30368.00
2022-08-11T11:25:04.323Z,25760.00
2022-08-11T11:26:58.694Z,20416.00
2022-08-11T11:27:58.685Z,10940.00
2022-08-11T11:29:52.882Z,2828.00
2022-08-11T11:30:52.893Z,2460.00
2022-08-11T11:32:49.661Z,2116.00
2022-08-11T11:34:06.904Z,2052.00
2022-08-11T11:35:41.161Z,2004.00
2022-08-11T11:36:41.160Z,1984.00
2022-08-11T11:38:36.363Z,1948.00
2022-08-11T11:39:36.435Z,1936.00
2022-08-11T11:41:30.567Z,1920.00
2022-08-11T11:42:30.564Z,1912.00
2022-08-11T11:44:24.903Z,1892.00
2022-08-11T11:45:24.902Z,1876.00
2022-08-11T11:47:19.147Z,1864.00
2022-08-11T11:48:19.120Z,1856.00
2022-08-11T11:50:13.292Z,1828.00
2022-08-11T11:51:13.236Z,1824.00
2022-08-11T11:53:07.343Z,1792.00
2022-08-11T11:54:07.348Z,1780.00
2022-08-11T11:56:01.600Z,1752.00
2022-08-11T11:57:01.593Z,1740.00
2022-08-11T11:58:55.890Z,1716.00
2022-08-11T11:59:55.896Z,1700.00
2022-08-11T12:01:50.179Z,1684.00
2022-08-11T12:02:50.133Z,1672.00
2022-08-11T12:04:44.224Z,1660.00
2022-08-11T12:05:44.218Z,1656.00
2022-08-11T12:07:38.157Z,1640.00
2022-08-11T12:08:38.072Z,1632.00
2022-08-11T12:10:32.133Z,1608.00
2022-08-11T12:11:32.115Z,1596.00
2022-08-11T12:13:27.242Z,1588.00
2022-08-11T12:14:27.238Z,1584.00
2022-08-11T12:16:33.231Z,1568.00
2022-08-11T12:17:21.345Z,1560.00
2022-08-11T12:19:15.466Z,1560.00
2022-08-11T12:20:31.863Z,1556.00
2022-08-11T12:22:09.602Z,1544.00
2022-08-11T12:23:09.598Z,1532.00
2022-08-11T12:25:03.888Z,1524.00
2022-08-11T12:26:25.892Z,1524.00
2022-08-11T12:27:58.143Z,1512.00
2022-08-11T12:28:58.135Z,1504.00
2022-08-11T12:30:54.181Z,1496.00
2022-08-11T12:31:52.954Z,1488.00
2022-08-11T12:33:47.094Z,1480.00
2022-08-11T12:34:47.076Z,1476.00
2022-08-11T12:36:41.217Z,1468.00
2022-08-11T12:37:41.582Z,1460.00
2022-08-11T12:40:16.527Z,1460.00
2022-08-11T12:40:42.518Z,1456.00
2022-08-11T12:42:29.436Z,1440.00
2022-08-11T12:43:38.084Z,1436.00
2022-08-11T12:45:23.616Z,1420.00
2022-08-11T12:46:23.618Z,1420.00
2022-08-11T12:49:00.832Z,1408.00
2022-08-11T12:49:17.767Z,1408.00
2022-08-11T12:51:12.111Z,1412.00
2022-08-11T12:52:15.546Z,1408.00
2022-08-11T12:54:06.253Z,1404.00
2022-08-11T12:55:09.748Z,1404.00
2022-08-11T12:57:00.399Z,1392.00
2022-08-11T12:58:00.387Z,1388.00
2022-08-11T12:59:56.542Z,1376.00
2022-08-11T13:00:56.603Z,1372.00
2022-08-11T13:02:50.716Z,1364.00
2022-08-11T13:03:52.329Z,1368.00
2022-08-11T13:05:45.413Z,1364.00
2022-08-11T13:06:44.844Z,1360.00
2022-08-11T13:08:38.976Z,1360.00
2022-08-11T13:09:38.954Z,1352.00
2022-08-11T13:11:54.499Z,1340.00
2022-08-11T13:12:33.172Z,1336.00
2022-08-11T13:14:28.357Z,1328.00
2022-08-11T13:15:28.353Z,1320.00
2022-08-11T13:17:43.733Z,1308.00
2022-08-11T13:18:23.450Z,1304.00
2022-08-11T13:20:17.777Z,1296.00
2022-08-11T13:21:20.838Z,1284.00
2022-08-11T13:23:12.007Z,1272.00
2022-08-11T13:24:11.998Z,1268.00
2022-08-11T13:26:06.150Z,1260.00
2022-08-11T13:27:06.150Z,1256.00
2022-08-11T13:29:00.417Z,1252.00
2022-08-11T13:30:00.407Z,1252.00
2022-08-11T13:31:54.582Z,1244.00
2022-08-11T13:32:54.570Z,1240.00
2022-08-11T13:34:48.719Z,1240.00
2022-08-11T13:35:48.733Z,1236.00
2022-08-11T13:38:19.756Z,1228.00
2022-08-11T13:38:44.490Z,1236.00
2022-08-11T13:40:54.689Z,1236.00
2022-08-11T13:41:37.020Z,1232.00
2022-08-11T13:43:31.125Z,1228.00
2022-08-11T13:44:31.114Z,1224.00
2022-08-11T13:46:26.282Z,1208.00
2022-08-11T13:47:26.280Z,1200.00
2022-08-11T13:49:20.485Z,1204.00
2022-08-11T13:50:20.475Z,1204.00
2022-08-11T13:52:14.579Z,1204.00
2022-08-11T13:53:14.567Z,1204.00
2022-08-11T13:55:08.661Z,1200.00
2022-08-11T13:56:08.667Z,1200.00
2022-08-11T13:58:08.502Z,1188.00
2022-08-11T13:59:02.770Z,1180.00
2022-08-11T14:00:56.932Z,1176.00
2022-08-11T14:02:21.346Z,1176.00
2022-08-11T14:04:29.888Z,1160.00
2022-08-11T14:04:51.075Z,1160.00
2022-08-11T14:06:45.185Z,1168.00
2022-08-11T14:07:45.186Z,1172.00
2022-08-11T14:09:39.303Z,1164.00
2022-08-11T14:10:39.294Z,1156.00
2022-08-11T14:12:33.473Z,1148.00
2022-08-11T14:13:42.281Z,1136.00
2022-08-11T14:15:27.687Z,1116.00
2022-08-11T14:16:27.677Z,1104.00
2022-08-11T14:18:21.914Z,1096.00
2022-08-11T14:19:21.903Z,1092.00
2022-08-11T14:21:16.011Z,1084.00
2022-08-11T14:22:16.012Z,1080.00
2022-08-11T14:24:10.157Z,1072.00
2022-08-11T14:25:10.150Z,1060.00
2022-08-11T14:27:05.256Z,1060.00
2022-08-11T14:28:31.164Z,1052.00
2022-08-11T14:29:59.385Z,1060.00
2022-08-11T14:31:01.795Z,1064.00
2022-08-11T14:32:56.044Z,1060.00
2022-08-11T14:33:59.586Z,1056.00
2022-08-11T14:35:48.800Z,1056.00
2022-08-11T14:36:48.646Z,1052.00
2022-08-11T14:38:42.785Z,1044.00
2022-08-11T14:39:42.806Z,1036.00
2022-08-11T14:41:36.899Z,1028.00
2022-08-11T14:42:36.897Z,1028.00
2022-08-11T14:44:31.273Z,1016.00
2022-08-11T14:45:58.368Z,1012.00
2022-08-11T14:47:25.866Z,1000.00
2022-08-11T14:48:25.566Z,996.00
2022-08-11T14:50:19.731Z,988.00
2022-08-11T14:51:19.707Z,992.00
2022-08-11T14:53:18.825Z,992.00
2022-08-11T14:54:13.822Z,992.00
2022-08-11T14:56:07.922Z,992.00
2022-08-11T14:57:07.924Z,992.00
2022-08-11T14:59:02.152Z,984.00
2022-08-11T15:00:02.235Z,988.00
2022-08-11T15:01:56.139Z,980.00
2022-08-11T15:02:56.139Z,972.00
2022-08-11T15:04:50.292Z,968.00
2022-08-11T15:05:57.215Z,964.00
2022-08-11T15:07:44.404Z,964.00
2022-08-11T15:08:44.393Z,960.00
2022-08-11T15:10:38.508Z,960.00
2022-08-11T15:11:38.510Z,956.00
2022-08-11T15:13:32.663Z,952.00
2022-08-11T15:14:32.706Z,944.00
2022-08-11T15:16:26.790Z,940.00
2022-08-11T15:17:38.421Z,932.00
2022-08-11T15:19:21.979Z,924.00
2022-08-11T15:20:21.957Z,920.00
2022-08-11T15:22:16.152Z,916.00
2022-08-11T15:23:16.145Z,916.00
2022-08-11T15:25:10.236Z,912.00
2022-08-11T15:26:10.233Z,908.00
2022-08-11T15:28:04.391Z,908.00
2022-08-11T15:29:04.384Z,904.00
2022-08-11T15:30:58.370Z,896.00
2022-08-11T15:31:58.369Z,900.00
2022-08-11T15:33:53.508Z,892.00
2022-08-11T15:34:53.496Z,880.00
2022-08-11T15:36:47.637Z,880.00
2022-08-11T15:37:47.645Z,880.00
2022-08-11T15:39:41.497Z,876.00
2022-08-11T15:40:41.483Z,876.00
2022-08-11T15:42:35.629Z,876.00
2022-08-11T15:43:35.627Z,876.00
2022-08-11T15:45:29.970Z,884.00
2022-08-11T15:46:29.964Z,884.00
2022-08-11T15:48:24.231Z,880.00
2022-08-11T15:49:24.224Z,872.00
2022-08-11T15:51:18.316Z,876.00
2022-08-11T15:52:18.319Z,880.00
2022-08-11T15:54:12.430Z,880.00
2022-08-11T15:55:12.416Z,876.00
2022-08-11T15:57:06.567Z,880.00
2022-08-11T15:58:06.564Z,876.00
2022-08-11T16:00:00.755Z,876.00
2022-08-11T16:01:04.114Z,880.00
2022-08-11T16:02:55.892Z,876.00
2022-08-11T16:04:07.189Z,872.00
2022-08-11T16:05:53.120Z,860.00
2022-08-11T16:06:50.006Z,852.00
2022-08-11T16:08:44.105Z,832.00
2022-08-11T16:09:46.921Z,828.00
2022-08-11T16:11:38.204Z,824.00
2022-08-11T16:12:38.199Z,816.00
2022-08-11T16:14:32.382Z,824.00
2022-08-11T16:15:32.373Z,832.00
2022-08-11T16:17:26.509Z,832.00
2022-08-11T16:18:26.504Z,828.00
2022-08-11T16:20:20.656Z,840.00
2022-08-11T16:21:33.585Z,832.00
2022-08-11T16:23:15.718Z,836.00
2022-08-11T16:27:04.889Z,828.00
2022-08-11T16:27:07.949Z,824.00
2022-08-11T16:27:14.018Z,824.00
2022-08-11T16:29:04.006Z,824.00
2022-08-11T16:30:04.000Z,820.00
2022-08-11T16:31:58.122Z,824.00
2022-08-11T16:32:58.118Z,828.00
2022-08-11T16:34:52.230Z,828.00
2022-08-11T16:35:52.219Z,820.00
2022-08-11T16:37:46.368Z,816.00
2022-08-11T16:38:46.367Z,828.00
2022-08-11T16:40:40.657Z,840.00
2022-08-11T16:41:40.641Z,840.00
2022-08-11T16:43:35.846Z,860.00
2022-08-11T16:44:37.643Z,868.00
2022-08-11T16:46:29.963Z,880.00
2022-08-11T16:48:03.480Z,884.00
2022-08-11T16:49:24.178Z,892.00
2022-08-11T16:50:24.175Z,884.00
2022-08-11T16:52:18.330Z,880.00
2022-08-11T16:53:18.333Z,876.00
2022-08-11T16:55:12.541Z,872.00
2022-08-11T16:56:12.535Z,880.00
2022-08-11T16:58:06.682Z,884.00
2022-08-11T16:59:06.667Z,884.00
2022-08-11T17:01:01.910Z,888.00
2022-08-11T17:02:01.788Z,884.00
2022-08-11T17:03:56.014Z,868.00
2022-08-11T17:04:56.001Z,856.00
2022-08-11T17:06:50.588Z,828.00
2022-08-11T17:07:50.211Z,816.00
2022-08-11T17:09:45.664Z,788.00
2022-08-11T17:10:53.672Z,768.00
2022-08-11T17:12:39.712Z,744.00
2022-08-11T17:13:39.718Z,736.00
2022-08-11T17:15:34.939Z,720.00
2022-08-11T17:16:34.927Z,712.00
2022-08-11T17:18:30.117Z,684.00
2022-08-11T17:20:40.683Z,676.00
2022-08-11T17:21:24.387Z,648.00
2022-08-11T17:22:24.378Z,640.00
2022-08-11T17:24:18.554Z,620.00
2022-08-11T17:25:18.544Z,608.00
2022-08-11T17:27:12.300Z,596.00
2022-08-11T17:28:12.298Z,584.00
2022-08-11T17:30:07.448Z,572.00
2022-08-11T17:31:19.993Z,560.00
2022-08-11T17:33:01.858Z,548.00
2022-08-11T17:34:01.751Z,544.00
2022-08-11T17:35:55.927Z,528.00
2022-08-11T17:36:55.900Z,520.00
2022-08-11T17:38:50.346Z,508.00
2022-08-11T17:39:50.388Z,500.00
2022-08-11T17:41:44.488Z,488.00
2022-08-11T17:42:44.486Z,480.00
2022-08-11T17:44:38.582Z,464.00
2022-08-11T17:45:38.574Z,456.00
2022-08-11T17:47:32.766Z,444.00
2022-08-11T17:48:32.723Z,440.00
2022-08-11T17:50:27.913Z,428.00
2022-08-11T17:51:27.857Z,424.00
2022-08-11T17:53:21.986Z,416.00
2022-08-11T17:54:24.546Z,412.00
2022-08-11T17:56:16.266Z,404.00
2022-08-11T17:57:20.442Z,408.00
2022-08-11T17:59:10.383Z,400.00
2022-08-11T18:00:10.349Z,400.00
2022-08-11T18:02:05.342Z,396.00
2022-08-11T18:03:04.475Z,388.00